Time;durP1;ratioP1;P1;durP2;ratioP2;P2;SDS_P1;SDS_P2;PMS_P1;PMS_P2;Temp;Humidity;BMP_temperature;BMP_pressure;BME280_temperature;BME280_humidity;BME280_pressure;Samples;Min_cycle;Max_cycle;Signal;HPM_P1;HPM_P2
2023/04/23 00:01:27;;;;;;;10.43;10.03;;;20.90;67.10;;;;;;5092264;28;20470;-60
2023/04/23 00:03:56;;;;;;;9.90;9.50;;;20.80;67.00;;;;;;5092146;28;20494;-58
2023/04/23 00:06:25;;;;;;;10.63;10.00;;;20.80;67.00;;;;;;5092217;28;20503;-60
2023/04/23 00:08:53;;;;;;;9.70;9.30;;;20.80;67.10;;;;;;5107942;28;20799;-59
2023/04/23 00:11:23;;;;;;;9.50;9.10;;;20.80;67.20;;;;;;5112468;28;20469;-59
2023/04/23 00:13:50;;;;;;;10.10;9.73;;;20.70;67.20;;;;;;5112260;28;20572;-59
2023/04/23 00:16:18;;;;;;;10.07;9.70;;;20.70;67.30;;;;;;5112375;28;20473;-57
2023/04/23 00:18:45;;;;;;;10.37;9.77;;;20.60;67.30;;;;;;5097114;28;20533;-57
2023/04/23 00:21:12;;;;;;;10.20;9.80;;;20.60;67.40;;;;;;5092055;28;20485;-59
2023/04/23 00:23:40;;;;;;;9.67;9.37;;;20.60;67.40;;;;;;5093585;28;20490;-58
2023/04/23 00:26:07;;;;;;;10.60;10.10;;;20.60;67.50;;;;;;5102453;28;20448;-60
2023/04/23 00:28:35;;;;;;;9.63;9.23;;;20.60;67.50;;;;;;5112014;28;20480;-59
2023/04/23 00:31:02;;;;;;;10.70;10.00;;;20.50;67.50;;;;;;5112081;28;20516;-60
2023/04/23 00:33:29;;;;;;;8.50;8.20;;;20.50;67.50;;;;;;5111889;28;20512;-60
2023/04/23 00:35:55;;;;;;;9.60;9.20;;;20.50;67.60;;;;;;5107284;28;20476;-60
2023/04/23 00:38:22;;;;;;;10.57;10.07;;;20.50;67.70;;;;;;5111859;28;20480;-60
2023/04/23 00:40:49;;;;;;;10.70;10.30;;;20.50;67.90;;;;;;5112147;28;20500;-59
2023/04/23 00:43:16;;;;;;;9.50;9.10;;;20.50;67.90;;;;;;5111965;28;20908;-60
2023/04/23 00:45:45;;;;;;;9.97;9.33;;;20.40;67.90;;;;;;5094144;28;20549;-59
2023/04/23 00:48:12;;;;;;;9.37;8.93;;;20.40;67.90;;;;;;5091557;28;20446;-59
2023/04/23 00:50:39;;;;;;;9.57;9.27;;;20.40;68.00;;;;;;5091914;28;20529;-60
2023/04/23 00:53:06;;;;;;;9.33;9.03;;;20.40;68.10;;;;;;5091579;28;20550;-60
2023/04/23 00:55:33;;;;;;;9.40;9.00;;;20.40;68.10;;;;;;5092597;28;20477;-60
2023/04/23 00:58:01;;;;;;;9.83;9.43;;;20.40;68.10;;;;;;5091444;28;20480;-60
2023/04/23 01:00:28;;;;;;;10.37;9.90;;;20.40;68.20;;;;;;5075389;28;20934;-60
2023/04/23 01:02:57;;;;;;;9.80;9.40;;;20.40;68.40;;;;;;5075500;28;20502;-60
2023/04/23 01:05:24;;;;;;;9.60;9.20;;;20.40;68.40;;;;;;5104117;28;20477;-59
2023/04/23 01:07:51;;;;;;;10.40;10.00;;;20.30;68.40;;;;;;5115861;28;20473;-59
2023/04/23 01:10:18;;;;;;;10.40;10.00;;;20.30;68.40;;;;;;5116018;28;20483;-61
2023/04/23 01:12:45;;;;;;;10.10;9.70;;;20.30;68.40;;;;;;5115965;28;20468;-60
2023/04/23 01:15:12;;;;;;;9.83;9.43;;;20.30;68.50;;;;;;5103287;28;20917;-60
2023/04/23 01:17:39;;;;;;;9.03;8.73;;;20.30;68.50;;;;;;5095337;28;20466;-60
2023/04/23 01:20:08;;;;;;;10.57;10.07;;;20.30;68.60;;;;;;5095490;28;20529;-59
2023/04/23 01:22:37;;;;;;;10.90;10.40;;;20.20;68.50;;;;;;5095349;28;20466;-59
2023/04/23 01:25:04;;;;;;;9.83;9.43;;;20.20;68.50;;;;;;5106192;28;20460;-61
2023/04/23 01:27:34;;;;;;;10.03;9.67;;;20.20;68.50;;;;;;5115615;28;20542;-59
2023/04/23 01:30:03;;;;;;;9.40;9.10;;;20.20;68.60;;;;;;5115802;28;20444;-60
2023/04/23 01:32:30;;;;;;;9.40;8.87;;;20.20;68.60;;;;;;5112030;28;20453;-59
2023/04/23 01:34:58;;;;;;;9.40;8.90;;;20.20;68.60;;;;;;5095013;28;21091;-59
2023/04/23 01:37:26;;;;;;;9.90;9.50;;;20.20;68.70;;;;;;5096014;28;20533;-59
2023/04/23 01:39:55;;;;;;;9.43;9.13;;;20.20;68.60;;;;;;5094962;28;20873;-60
2023/04/23 01:42:23;;;;;;;9.83;9.37;;;20.20;68.70;;;;;;5096203;28;20537;-60
2023/04/23 01:44:50;;;;;;;10.27;9.77;;;20.20;68.80;;;;;;5115416;28;20793;-60
2023/04/23 01:47:19;;;;;;;9.93;9.53;;;20.20;68.70;;;;;;5115229;28;20807;-60
2023/04/23 01:49:46;;;;;;;10.63;10.13;;;20.20;68.80;;;;;;5115129;28;20445;-59
2023/04/23 01:52:12;;;;;;;9.93;9.53;;;20.20;68.70;;;;;;5114729;28;20472;-61
2023/04/23 01:54:39;;;;;;;10.70;10.20;;;20.10;68.70;;;;;;5094769;28;20631;-59
2023/04/23 01:57:08;;;;;;;9.60;9.20;;;20.10;68.80;;;;;;5100435;28;20470;-59
2023/04/23 01:59:35;;;;;;;10.87;10.27;;;20.10;68.80;;;;;;5114956;28;20807;-60
2023/04/23 02:02:02;;;;;;;10.17;9.87;;;20.20;68.90;;;;;;5115034;28;20449;-59
2023/04/23 02:04:30;;;;;;;9.80;9.40;;;20.10;68.70;;;;;;5095611;28;20737;-60
2023/04/23 02:06:57;;;;;;;9.83;9.47;;;20.10;68.70;;;;;;5094427;28;20768;-60
2023/04/23 02:09:24;;;;;;;10.50;9.90;;;20.10;68.60;;;;;;5094332;28;20876;-59
2023/04/23 02:11:51;;;;;;;10.20;9.80;;;20.10;68.70;;;;;;5094362;28;20821;-59
2023/04/23 02:14:19;;;;;;;11.20;10.70;;;20.10;68.70;;;;;;5111168;28;20527;-59
2023/04/23 02:16:46;;;;;;;9.50;9.10;;;20.10;68.70;;;;;;5114523;28;20445;-60
2023/04/23 02:19:14;;;;;;;10.07;9.60;;;20.00;68.60;;;;;;5114674;28;20526;-57
2023/04/23 02:21:41;;;;;;;9.73;9.23;;;20.10;68.70;;;;;;5114710;28;20464;-59
2023/04/23 02:24:08;;;;;;;9.20;8.60;;;20.00;68.60;;;;;;5098654;28;20462;-58
2023/04/23 02:26:35;;;;;;;9.60;9.10;;;20.00;68.60;;;;;;5094044;28;20474;-60
2023/04/23 02:29:02;;;;;;;9.10;8.70;;;20.00;68.60;;;;;;5093978;28;20451;-60
2023/04/23 02:31:30;;;;;;;10.20;9.70;;;20.00;68.60;;;;;;5094042;28;20925;-59
2023/04/23 02:33:57;;;;;;;9.43;9.03;;;20.00;68.60;;;;;;5107434;28;20548;-59
2023/04/23 02:36:24;;;;;;;9.27;8.90;;;20.00;68.60;;;;;;5114400;28;20448;-59
2023/04/23 02:38:51;;;;;;;9.30;8.90;;;20.00;68.60;;;;;;5114261;28;20446;-59
2023/04/23 02:41:18;;;;;;;10.40;9.83;;;20.00;68.50;;;;;;5114275;28;20477;-60
2023/04/23 02:43:45;;;;;;;10.20;9.70;;;20.00;68.60;;;;;;5101778;28;20509;-59
2023/04/23 02:46:12;;;;;;;8.93;8.50;;;20.00;68.60;;;;;;5104163;28;20437;-59
2023/04/23 02:48:41;;;;;;;8.97;8.60;;;20.00;68.70;;;;;;5113898;28;20532;-59
2023/04/23 02:51:11;;;;;;;9.53;9.13;;;20.00;68.70;;;;;;5114030;28;20473;-59
2023/04/23 02:53:37;;;;;;;9.80;9.30;;;20.00;68.80;;;;;;5103321;28;20901;-59
2023/04/23 02:56:06;;;;;;;10.43;9.93;;;20.00;68.90;;;;;;5093519;28;20569;-60
2023/04/23 02:58:32;;;;;;;9.80;9.40;;;20.00;68.80;;;;;;5093253;28;20450;-60
2023/04/23 03:00:59;;;;;;;9.93;9.53;;;20.00;68.90;;;;;;5100824;28;20529;-60
2023/04/23 03:03:30;;;;;;;10.17;9.67;;;20.00;69.00;;;;;;5113732;28;20552;-60
2023/04/23 03:05:59;;;;;;;9.47;9.07;;;19.90;68.90;;;;;;5113896;28;20437;-60
2023/04/23 03:08:25;;;;;;;9.70;9.30;;;19.90;69.00;;;;;;5113471;28;20477;-60
2023/04/23 03:10:52;;;;;;;9.80;9.30;;;19.90;69.10;;;;;;5113154;28;20722;-61
2023/04/23 03:13:19;;;;;;;9.17;8.80;;;19.90;69.00;;;;;;5113518;28;20492;-60
2023/04/23 03:15:46;;;;;;;9.87;9.40;;;19.90;69.10;;;;;;5113562;28;20916;-60
2023/04/23 03:18:13;;;;;;;9.90;9.50;;;19.90;69.10;;;;;;5113357;28;20492;-61
2023/04/23 03:20:41;;;;;;;9.50;9.10;;;19.90;69.20;;;;;;5094506;28;20834;-61
2023/04/23 03:23:09;;;;;;;9.60;9.10;;;19.90;69.10;;;;;;5093504;28;20468;-59
2023/04/23 03:25:36;;;;;;;9.10;8.70;;;19.90;69.10;;;;;;5093036;28;20474;-59
2023/04/23 03:28:03;;;;;;;10.20;9.80;;;19.90;69.00;;;;;;5092645;28;20491;-58
2023/04/23 03:30:31;;;;;;;10.20;9.53;;;19.90;68.90;;;;;;5109211;28;20525;-60
2023/04/23 03:32:58;;;;;;;9.20;8.90;;;19.90;68.90;;;;;;5113164;28;20493;-60
2023/04/23 03:35:25;;;;;;;10.63;10.23;;;19.90;69.00;;;;;;5113216;28;20919;-60
2023/04/23 03:37:52;;;;;;;9.70;9.20;;;19.90;69.00;;;;;;5112923;28;20448;-59
2023/04/23 03:40:21;;;;;;;10.33;9.77;;;19.90;69.20;;;;;;5098247;28;20532;-60
2023/04/23 03:42:48;;;;;;;9.63;9.23;;;19.90;69.10;;;;;;5092470;28;20554;-60
2023/04/23 03:45:15;;;;;;;9.70;9.20;;;19.80;69.10;;;;;;5092948;28;20525;-59
2023/04/23 03:47:42;;;;;;;10.27;9.87;;;19.80;69.00;;;;;;5112774;28;20441;-59
2023/04/23 03:50:11;;;;;;;9.23;8.90;;;19.80;69.10;;;;;;5112941;28;20481;-59
2023/04/23 03:52:38;;;;;;;10.70;10.10;;;19.80;69.00;;;;;;5112770;28;20976;-58
2023/04/23 03:55:07;;;;;;;8.90;8.60;;;19.80;69.00;;;;;;5100621;28;20564;-60
2023/04/23 03:57:35;;;;;;;9.53;8.97;;;19.80;69.10;;;;;;5092248;28;20442;-60
2023/04/23 04:00:03;;;;;;;9.43;9.13;;;19.80;69.00;;;;;;5092347;28;20529;-59
2023/04/23 04:02:29;;;;;;;10.27;9.87;;;19.80;69.10;;;;;;5092255;28;20804;-58
2023/04/23 04:04:56;;;;;;;10.10;9.70;;;19.80;69.10;;;;;;5102251;28;20473;-59
2023/04/23 04:07:23;;;;;;;9.63;9.23;;;19.80;69.10;;;;;;5112445;28;20484;-59
2023/04/23 04:09:50;;;;;;;10.57;10.07;;;19.80;69.10;;;;;;5112513;28;20477;-60
2023/04/23 04:12:17;;;;;;;10.43;9.83;;;19.80;69.10;;;;;;5112414;28;20536;-59
2023/04/23 04:14:45;;;;;;;10.27;9.77;;;19.80;69.10;;;;;;5103966;28;20570;-59
2023/04/23 04:17:14;;;;;;;10.07;9.57;;;19.80;69.20;;;;;;5091864;28;20446;-60
2023/04/23 04:19:41;;;;;;;10.77;10.23;;;19.80;69.20;;;;;;5096182;28;20447;-59
2023/04/23 04:22:08;;;;;;;9.90;9.60;;;19.70;69.00;;;;;;5092044;28;20477;-59
2023/04/23 04:24:36;;;;;;;10.00;9.60;;;19.80;69.10;;;;;;5098364;28;20540;-58
2023/04/23 04:27:03;;;;;;;10.10;9.70;;;19.70;69.10;;;;;;5112169;28;20449;-59
2023/04/23 04:29:30;;;;;;;10.50;10.10;;;19.70;69.00;;;;;;5112264;28;20460;-59
2023/04/23 04:32:00;;;;;;;10.87;10.37;;;19.70;69.20;;;;;;5112194;28;20499;-60
2023/04/23 04:34:27;;;;;;;10.50;10.00;;;19.70;69.30;;;;;;5107626;28;20474;-59
2023/04/23 04:36:54;;;;;;;10.90;10.20;;;19.70;69.10;;;;;;5098836;28;20987;-55
2023/04/23 04:39:20;;;;;;;10.90;10.20;;;19.70;69.10;;;;;;5111967;28;20477;-54
2023/04/23 04:41:48;;;;;;;10.10;9.60;;;19.70;69.30;;;;;;5112141;28;20502;-59
2023/04/23 04:44:15;;;;;;;9.17;8.57;;;19.80;70.00;;;;;;5108538;28;20478;-60
2023/04/23 04:46:42;;;;;;;8.23;7.93;;;19.80;70.70;;;;;;5091447;28;20937;-61
2023/04/23 04:49:11;;;;;;;10.47;9.93;;;19.80;71.20;;;;;;5091633;28;20878;-60
2023/04/23 04:51:38;;;;;;;13.13;12.43;;;19.80;71.40;;;;;;5091637;28;20482;-64
2023/04/23 04:54:06;;;;;;;11.53;11.07;;;19.80;72.60;;;;;;5092607;28;20498;-55
2023/04/23 04:56:33;;;;;;;11.53;10.93;;;19.90;71.70;;;;;;5099202;28;20556;-62
2023/04/23 04:59:00;;;;;;;10.23;9.83;;;19.90;71.90;;;;;;5111798;28;20529;-63
2023/04/23 05:01:28;;;;;;;10.03;9.70;;;20.00;71.30;;;;;;5113065;28;20484;-62
2023/04/23 05:03:55;;;;;;;10.02;9.63;;;20.00;71.10;;;;;;5111726;28;20451;-56
2023/04/23 05:06:23;;;;;;;10.10;9.70;;;20.10;71.00;;;;;;5071991;28;20228;-57
2023/04/23 05:08:50;;;;;;;10.83;10.23;;;20.10;70.60;;;;;;5071757;28;20864;-56
2023/04/23 05:11:18;;;;;;;10.03;9.63;;;20.20;70.40;;;;;;5072003;28;20490;-53
2023/04/23 05:13:46;;;;;;;10.40;9.90;;;20.30;70.10;;;;;;5072010;28;20467;-52
2023/04/23 05:16:13;;;;;;;10.20;9.70;;;20.30;70.00;;;;;;5109477;28;20491;-56
2023/04/23 05:18:41;;;;;;;10.87;10.37;;;20.30;70.00;;;;;;5112390;28;20496;-58
2023/04/23 05:21:08;;;;;;;9.80;9.40;;;20.30;70.20;;;;;;5111737;28;20462;-58
2023/04/23 05:23:36;;;;;;;9.50;9.10;;;20.30;69.60;;;;;;5111684;28;20462;-57
2023/04/23 05:26:04;;;;;;;9.57;9.27;;;20.40;69.70;;;;;;5094322;28;20474;-56
2023/04/23 05:28:31;;;;;;;11.00;10.50;;;20.40;69.80;;;;;;5091012;28;20449;-57
2023/04/23 05:30:58;;;;;;;9.37;8.97;;;20.40;69.70;;;;;;5091332;28;20671;-54
2023/04/23 05:33:26;;;;;;;10.20;9.80;;;20.40;69.60;;;;;;5091995;28;20497;-51
2023/04/23 05:35:53;;;;;;;10.07;9.57;;;20.40;69.70;;;;;;5106749;28;20548;-55
2023/04/23 05:38:20;;;;;;;10.27;9.87;;;20.50;69.70;;;;;;5112243;28;20456;-55
2023/04/23 05:40:48;;;;;;;9.60;9.27;;;20.50;69.60;;;;;;5112464;28;20481;-53
2023/04/23 05:43:15;;;;;;;9.70;9.30;;;20.50;69.70;;;;;;5112703;28;20465;-55
2023/04/23 05:45:43;;;;;;;9.13;8.83;;;20.50;69.60;;;;;;5115236;28;20440;-57
2023/04/23 05:48:10;;;;;;;9.10;8.80;;;20.50;69.50;;;;;;5115635;28;20452;-57
2023/04/23 05:50:37;;;;;;;9.33;9.03;;;20.50;69.30;;;;;;5115812;28;20442;-57
2023/04/23 05:53:03;;;;;;;9.27;8.90;;;20.50;69.10;;;;;;5116206;28;20496;-57
2023/04/23 05:55:30;;;;;;;10.03;9.53;;;20.60;69.20;;;;;;5103047;28;20517;-57
2023/04/23 05:57:58;;;;;;;9.97;9.60;;;20.60;69.10;;;;;;5094594;28;20513;-58
2023/04/23 06:00:25;;;;;;;9.50;9.10;;;20.60;69.10;;;;;;5094651;28;20473;-57
2023/04/23 06:02:52;;;;;;;9.13;8.93;;;20.60;68.80;;;;;;5094497;28;20490;-53
2023/04/23 06:05:19;;;;;;;9.60;9.20;;;20.60;69.00;;;;;;5104473;28;20525;-54
2023/04/23 06:07:46;;;;;;;8.83;8.53;;;20.60;68.70;;;;;;5114736;28;20445;-52
2023/04/23 06:10:13;;;;;;;8.90;8.60;;;20.60;68.50;;;;;;5114928;28;20446;-55
2023/04/23 06:12:41;;;;;;;9.30;8.97;;;20.70;68.60;;;;;;5114763;28;20465;-52
2023/04/23 06:15:10;;;;;;;9.17;8.77;;;20.70;68.40;;;;;;5112934;28;20438;-54
2023/04/23 06:17:37;;;;;;;9.43;9.10;;;20.70;68.20;;;;;;5114534;28;20959;-54
2023/04/23 06:20:06;;;;;;;8.80;8.50;;;20.70;68.20;;;;;;5115093;28;20441;-56
2023/04/23 06:22:33;;;;;;;8.37;8.07;;;20.70;68.20;;;;;;5114816;28;20510;-54
2023/04/23 06:25:00;;;;;;;9.60;9.30;;;20.70;68.20;;;;;;5108323;28;20481;-59
2023/04/23 06:27:27;;;;;;;8.93;8.53;;;20.70;68.10;;;;;;5094132;28;20442;-59
2023/04/23 06:29:54;;;;;;;8.63;8.33;;;20.70;67.90;;;;;;5094114;28;20537;-61
2023/04/23 06:32:22;;;;;;;9.37;9.07;;;20.80;67.30;;;;;;5094011;28;20529;-59
2023/04/23 06:34:50;;;;;;;9.13;8.83;;;20.80;67.00;;;;;;5098082;28;20820;-61
2023/04/23 06:37:17;;;;;;;9.57;9.17;;;20.90;67.10;;;;;;5114116;28;20485;-56
2023/04/23 06:39:44;;;;;;;10.03;9.63;;;20.90;66.90;;;;;;5114338;28;20473;-53
2023/04/23 06:42:11;;;;;;;10.23;9.73;;;20.90;66.50;;;;;;5114297;28;20442;-57
2023/04/23 06:44:38;;;;;;;9.73;9.43;;;20.90;66.80;;;;;;5112333;28;20512;-58
2023/04/23 06:47:05;;;;;;;8.83;8.57;;;21.00;66.80;;;;;;5093610;28;20479;-56
2023/04/23 06:49:33;;;;;;;10.33;10.03;;;21.00;66.70;;;;;;5093739;28;20474;-57
2023/04/23 06:52:00;;;;;;;9.50;9.20;;;21.00;66.80;;;;;;5093925;28;20905;-56
2023/04/23 06:54:27;;;;;;;10.50;10.10;;;21.00;66.70;;;;;;5093588;28;20537;-58
2023/04/23 06:56:55;;;;;;;10.10;9.77;;;21.00;66.70;;;;;;5112067;28;20564;-61
2023/04/23 06:59:22;;;;;;;8.60;8.37;;;21.00;66.70;;;;;;5114000;28;20549;-59
2023/04/23 07:01:49;;;;;;;9.50;9.20;;;21.10;66.70;;;;;;5099846;28;20533;-60
2023/04/23 07:04:16;;;;;;;8.60;8.40;;;21.10;67.50;;;;;;5093708;28;21041;-57
2023/04/23 07:06:45;;;;;;;9.33;9.03;;;21.10;66.60;;;;;;5111661;28;20529;-59
2023/04/23 07:09:12;;;;;;;9.43;9.17;;;21.20;66.70;;;;;;5113800;28;20481;-57
2023/04/23 07:11:41;;;;;;;8.97;8.77;;;21.20;66.60;;;;;;5113978;28;20989;-63
2023/04/23 07:14:08;;;;;;;9.23;8.93;;;21.30;67.90;;;;;;5113673;28;20489;-57
2023/04/23 07:16:35;;;;;;;9.60;9.30;;;21.40;67.90;;;;;;5111596;28;20565;-58
2023/04/23 07:19:02;;;;;;;9.27;8.90;;;21.50;66.80;;;;;;5113538;28;20442;-64
2023/04/23 07:21:29;;;;;;;9.50;9.30;;;21.50;66.70;;;;;;5113532;28;20464;-58
2023/04/23 07:23:59;;;;;;;9.90;9.60;;;21.60;67.70;;;;;;5113608;28;20457;-60
2023/04/23 07:26:27;;;;;;;10.00;9.70;;;21.60;68.60;;;;;;5098660;28;20557;-62
2023/04/23 07:28:53;;;;;;;9.40;9.10;;;21.60;67.50;;;;;;5092849;28;20453;-60
2023/04/23 07:31:22;;;;;;;9.90;9.60;;;21.60;66.50;;;;;;5092925;28;20514;-64
2023/04/23 07:33:49;;;;;;;10.20;9.80;;;21.70;68.60;;;;;;5094068;28;20797;-58
2023/04/23 07:36:16;;;;;;;9.43;9.20;;;21.70;67.50;;;;;;5092746;28;20565;-59
2023/04/23 07:38:43;;;;;;;9.87;9.57;;;21.70;67.00;;;;;;5092749;28;20533;-60
2023/04/23 07:41:11;;;;;;;10.40;10.10;;;21.80;65.80;;;;;;5092726;28;20530;-59
2023/04/23 07:43:39;;;;;;;11.03;10.73;;;21.80;65.40;;;;;;5096404;28;20465;-57
2023/04/23 07:46:06;;;;;;;10.27;9.97;;;21.80;65.10;;;;;;5112961;28;20529;-57
2023/04/23 07:48:33;;;;;;;10.00;9.70;;;21.80;64.90;;;;;;5112973;28;20480;-57
2023/04/23 07:51:01;;;;;;;10.10;9.80;;;21.90;64.90;;;;;;5112866;28;20445;-56
2023/04/23 07:53:28;;;;;;;10.00;9.70;;;21.90;64.70;;;;;;5110407;28;20504;-56
2023/04/23 07:55:55;;;;;;;9.67;9.30;;;21.90;64.50;;;;;;5092605;28;20481;-57
2023/04/23 07:58:25;;;;;;;10.10;9.80;;;21.90;64.50;;;;;;5104793;28;20968;-58
2023/04/23 08:00:52;;;;;;;9.80;9.50;;;21.90;64.40;;;;;;5112927;28;20473;-57
2023/04/23 08:03:19;;;;;;;9.83;9.63;;;21.90;64.20;;;;;;5111691;28;20493;-58
2023/04/23 08:05:46;;;;;;;9.47;9.17;;;22.00;64.30;;;;;;5092237;28;20478;-63
2023/04/23 08:08:13;;;;;;;10.03;9.73;;;22.00;64.20;;;;;;5092007;28;20478;-65
2023/04/23 08:10:40;;;;;;;10.50;10.20;;;22.10;66.80;;;;;;5092231;28;20481;-62
2023/04/23 08:13:07;;;;;;;10.57;10.27;;;22.10;66.00;;;;;;5092070;28;20500;-57
2023/04/23 08:15:35;;;;;;;9.97;9.67;;;22.10;64.80;;;;;;5111648;28;20477;-61
2023/04/23 08:18:03;;;;;;;10.83;10.53;;;22.10;64.50;;;;;;5112274;28;20441;-56
2023/04/23 08:20:30;;;;;;;9.90;9.60;;;22.10;64.10;;;;;;5112364;28;20465;-57
2023/04/23 08:22:57;;;;;;;10.57;10.20;;;22.10;64.10;;;;;;5112262;28;20901;-56
2023/04/23 08:25:25;;;;;;;10.60;10.30;;;22.20;64.10;;;;;;5094977;28;20489;-57
2023/04/23 08:27:51;;;;;;;10.47;10.17;;;22.20;64.10;;;;;;5091877;28;20474;-55
2023/04/23 08:30:18;;;;;;;9.83;9.53;;;22.20;64.00;;;;;;5091992;28;20495;-57
2023/04/23 08:32:50;;;;;;;9.80;9.60;;;22.20;63.90;;;;;;5091716;28;20490;-58
2023/04/23 08:35:17;;;;;;;9.67;9.47;;;22.20;63.80;;;;;;5092905;28;20535;-57
2023/04/23 08:37:44;;;;;;;10.30;10.00;;;22.20;63.80;;;;;;5091665;28;20531;-55
2023/04/23 08:40:11;;;;;;;9.60;9.40;;;22.30;63.80;;;;;;5091853;28;21157;-58
2023/04/23 08:42:42;;;;;;;10.00;9.70;;;22.30;63.70;;;;;;5091606;28;20527;-57
2023/04/23 08:45:11;;;;;;;9.93;9.63;;;22.30;63.60;;;;;;5105248;28;20441;-58
2023/04/23 08:47:41;;;;;;;10.40;10.10;;;22.30;63.50;;;;;;5111952;28;20521;-61
2023/04/23 08:50:10;;;;;;;10.00;9.70;;;22.30;63.50;;;;;;5112044;28;20503;-59
2023/04/23 08:52:40;;;;;;;9.87;9.57;;;22.30;63.50;;;;;;5112070;28;20464;-59
2023/04/23 08:55:10;;;;;;;10.60;10.30;;;22.30;63.40;;;;;;5110215;28;20489;-60
2023/04/23 08:57:39;;;;;;;10.50;10.20;;;22.30;63.30;;;;;;5102779;28;20908;-61
2023/04/23 09:00:09;;;;;;;10.73;10.43;;;22.40;63.30;;;;;;5091682;28;20816;-63
2023/04/23 09:02:37;;;;;;;10.20;9.90;;;22.40;63.40;;;;;;5091548;28;20829;-62
2023/04/23 09:05:04;;;;;;;9.63;9.37;;;22.40;63.30;;;;;;5100747;28;20449;-60
2023/04/23 09:07:34;;;;;;;10.10;9.80;;;22.40;63.20;;;;;;5108035;28;20437;-60
2023/04/23 09:10:01;;;;;;;10.20;9.90;;;22.50;63.20;;;;;;5112081;28;20442;-61
2023/04/23 09:12:28;;;;;;;10.50;10.00;;;22.50;63.10;;;;;;5111781;28;20495;-59
2023/04/23 09:14:55;;;;;;;10.90;10.60;;;22.50;62.90;;;;;;5103696;28;20485;-58
2023/04/23 09:17:23;;;;;;;10.50;10.20;;;22.50;62.90;;;;;;5111560;28;20477;-59
2023/04/23 09:19:51;;;;;;;10.67;10.37;;;22.50;62.80;;;;;;5113220;28;20532;-60
2023/04/23 09:22:40;;;;;;;10.80;10.40;;;22.50;62.70;;;;;;5115845;28;20445;-56
2023/04/23 09:25:14;;;;;;;11.30;11.00;;;22.50;63.90;;;;;;5096466;28;20446;-58
2023/04/23 09:27:41;;;;;;;10.97;10.50;;;22.60;64.70;;;;;;5095125;28;20925;-57
2023/04/23 09:30:10;;;;;;;10.20;9.90;;;22.50;64.60;;;;;;5095218;28;20521;-58
2023/04/23 09:32:40;;;;;;;10.00;9.80;;;22.50;64.20;;;;;;5095231;28;20500;-60
2023/04/23 09:35:09;;;;;;;10.43;9.80;;;22.50;64.10;;;;;;5103648;28;20442;-56
2023/04/23 09:37:37;;;;;;;10.50;10.00;;;22.50;64.20;;;;;;5094935;28;20474;-58
2023/04/23 09:40:07;;;;;;;10.30;9.90;;;22.50;64.10;;;;;;5095115;28;20471;-56
2023/04/23 09:42:35;;;;;;;10.63;10.33;;;22.50;63.10;;;;;;5095054;28;20837;-56
2023/04/23 09:45:05;;;;;;;10.50;10.20;;;22.40;63.00;;;;;;5095088;28;20446;-58
2023/04/23 09:47:33;;;;;;;10.40;10.10;;;22.40;63.20;;;;;;5106373;28;20521;-60
2023/04/23 09:50:01;;;;;;;11.57;10.97;;;22.30;63.80;;;;;;5113579;28;20452;-60
2023/04/23 09:52:30;;;;;;;10.70;10.40;;;22.30;63.70;;;;;;5115214;28;20502;-57
2023/04/23 09:54:58;;;;;;;10.70;10.40;;;22.30;63.70;;;;;;5097552;28;20967;-57
2023/04/23 09:57:26;;;;;;;11.10;10.80;;;22.30;63.60;;;;;;5104710;28;20477;-56
2023/04/23 09:59:56;;;;;;;10.73;10.43;;;22.30;63.30;;;;;;5108883;28;20484;-59
2023/04/23 10:02:27;;;;;;;10.10;9.80;;;22.30;63.40;;;;;;5114868;28;20469;-55
2023/04/23 10:04:55;;;;;;;10.73;10.33;;;22.30;62.70;;;;;;5115056;28;20450;-56
2023/04/23 10:07:22;;;;;;;9.23;8.83;;;22.30;62.20;;;;;;5104610;28;20492;-59
2023/04/23 10:09:50;;;;;;;10.53;10.07;;;22.30;62.80;;;;;;5097929;28;20473;-59
2023/04/23 10:12:17;;;;;;;11.23;10.73;;;22.50;64.20;;;;;;5114849;28;20872;-60
2023/04/23 10:14:48;;;;;;;10.50;10.20;;;22.60;64.10;;;;;;5114877;28;20477;-59
2023/04/23 10:17:15;;;;;;;10.87;10.57;;;22.60;64.10;;;;;;5109504;28;20528;-61
2023/04/23 10:19:43;;;;;;;10.73;10.10;;;22.60;64.00;;;;;;5094263;28;21013;-63
2023/04/23 10:22:11;;;;;;;10.23;9.93;;;22.70;64.10;;;;;;5094346;28;20945;-63
2023/04/23 10:24:40;;;;;;;9.90;9.70;;;22.70;63.90;;;;;;5098904;28;20442;-63
2023/04/23 10:27:11;;;;;;;9.50;9.20;;;22.70;63.80;;;;;;5116153;28;20536;-63
2023/04/23 10:29:39;;;;;;;10.00;9.50;;;22.70;63.70;;;;;;5115787;28;20477;-60
2023/04/23 10:32:08;;;;;;;9.67;9.37;;;22.70;63.80;;;;;;5114855;28;20444;-61
2023/04/23 10:34:35;;;;;;;10.20;9.90;;;22.70;63.70;;;;;;5111212;28;20458;-63
2023/04/23 10:37:03;;;;;;;9.93;9.63;;;22.70;63.80;;;;;;5106744;28;20481;-63
2023/04/23 10:39:32;;;;;;;10.20;9.90;;;22.70;63.70;;;;;;5114347;28;20438;-59
2023/04/23 10:42:00;;;;;;;9.87;9.57;;;22.70;63.90;;;;;;5114369;28;20445;-61
2023/04/23 10:44:33;;;;;;;9.60;9.40;;;22.70;63.70;;;;;;5109392;28;20557;-58
2023/04/23 10:47:01;;;;;;;10.17;9.87;;;22.70;63.10;;;;;;5095435;28;20984;-55
2023/04/23 10:49:32;;;;;;;10.30;9.90;;;22.70;62.90;;;;;;5107640;28;20853;-52
2023/04/23 10:52:00;;;;;;;10.20;9.90;;;22.70;63.00;;;;;;5112410;28;21001;-58
2023/04/23 10:54:31;;;;;;;9.77;9.57;;;22.80;62.80;;;;;;5093576;28;20547;-63
2023/04/23 10:57:01;;;;;;;9.93;9.63;;;22.80;62.40;;;;;;5093653;28;20482;-61
2023/04/23 10:59:29;;;;;;;10.47;9.87;;;22.80;62.80;;;;;;5094596;28;20453;-62
2023/04/23 11:01:58;;;;;;;9.87;9.67;;;22.80;62.10;;;;;;5094362;28;20745;-58
2023/04/23 11:04:27;;;;;;;10.13;9.83;;;22.80;62.40;;;;;;5094133;28;20462;-62
2023/04/23 11:06:58;;;;;;;8.48;8.27;;;22.90;63.40;;;;;;5095996;28;20460;-63
2023/04/23 11:09:39;;;;;;;11.43;11.03;;;22.80;62.00;;;;;;5093519;28;20216;-61
2023/04/23 11:12:08;;;;;;;10.20;9.90;;;22.80;61.00;;;;;;5093326;28;20446;-64
2023/04/23 11:14:37;;;;;;;10.73;10.33;;;22.70;60.90;;;;;;5093450;28;20995;-64
2023/04/23 11:17:05;;;;;;;10.30;9.90;;;22.70;61.20;;;;;;5093699;28;20478;-64
2023/04/23 11:19:35;;;;;;;10.10;9.80;;;22.70;61.20;;;;;;5093249;28;20447;-64
2023/04/23 11:22:07;;;;;;;11.13;10.73;;;22.60;61.20;;;;;;5093251;28;20497;-64
2023/04/23 11:24:37;;;;;;;11.47;10.93;;;22.60;61.70;;;;;;5106201;28;20469;-65
2023/04/23 11:27:06;;;;;;;14.03;13.00;;;22.70;62.60;;;;;;5113301;28;20442;-64
2023/04/23 11:29:33;;;;;;;11.47;10.67;;;22.60;62.90;;;;;;5113463;28;20971;-64
2023/04/23 11:32:00;;;;;;;12.37;11.50;;;22.60;63.30;;;;;;5113300;28;20474;-64
2023/04/23 11:34:28;;;;;;;12.20;11.27;;;22.70;63.90;;;;;;5099887;28;20521;-66
2023/04/23 11:36:58;;;;;;;14.77;13.37;;;22.70;65.00;;;;;;5092666;28;20534;-64
2023/04/23 11:39:27;;;;;;;15.67;13.97;;;22.60;70.70;;;;;;5092797;28;20447;-66
2023/04/23 11:41:54;;;;;;;18.87;14.10;;;22.60;77.30;;;;;;5092173;28;20866;-62
2023/04/23 11:44:20;;;;;;;14.50;13.60;;;22.50;78.80;;;;;;5103018;28;20501;-64
2023/04/23 11:46:49;;;;;;;16.03;13.40;;;22.60;78.10;;;;;;5114652;28;20948;-60
2023/04/23 11:49:16;;;;;;;14.40;13.23;;;22.60;78.70;;;;;;5095558;28;20439;-66
2023/04/23 11:51:44;;;;;;;21.37;19.20;;;22.50;80.80;;;;;;5095525;28;20804;-68
2023/04/23 11:54:12;;;;;;;20.83;19.50;;;22.60;81.20;;;;;;5103051;28;20501;-60
2023/04/23 11:56:41;;;;;;;19.00;17.20;;;22.60;79.60;;;;;;5112593;28;20802;-66
2023/04/23 11:59:08;;;;;;;20.10;18.20;;;22.60;79.90;;;;;;5113204;28;20258;-70
2023/04/23 12:01:43;;;;;;;18.63;17.20;;;22.60;80.40;;;;;;5113194;28;20481;-62
2023/04/23 12:04:14;;;;;;;21.83;19.67;;;22.70;80.60;;;;;;5103316;28;20458;-65
2023/04/23 12:06:43;;;;;;;23.23;21.03;;;22.80;80.30;;;;;;5093683;28;20477;-69
2023/04/23 12:09:11;;;;;;;21.90;20.20;;;22.80;80.00;;;;;;5093956;28;20474;-67
2023/04/23 12:11:40;;;;;;;25.65;20.15;;;22.80;79.70;;;;;;5097212;28;20451;-69
2023/04/23 12:14:08;;;;;;;25.83;23.50;;;22.80;78.40;;;;;;5114675;28;20224;-64
2023/04/23 12:16:37;;;;;;;24.03;22.00;;;22.90;78.20;;;;;;5113639;28;20464;-68
2023/04/23 12:19:04;;;;;;;24.67;22.63;;;22.90;78.60;;;;;;5112928;28;20546;-66
2023/04/23 12:21:31;;;;;;;21.43;19.77;;;22.90;77.70;;;;;;5112773;28;20492;-65
2023/04/23 12:23:58;;;;;;;22.47;20.30;;;22.90;78.10;;;;;;5112459;28;20465;-65
2023/04/23 12:26:26;;;;;;;22.20;20.53;;;22.90;78.50;;;;;;5112464;28;20809;-69
2023/04/23 12:28:57;;;;;;;22.70;20.60;;;22.80;78.10;;;;;;5113512;28;20469;-70
2023/04/23 12:31:26;;;;;;;23.17;21.27;;;22.90;77.90;;;;;;5102840;28;20454;-71
2023/04/23 12:34:03;;;;;;;22.40;20.63;;;22.90;76.70;;;;;;5092849;28;20484;-67
2023/04/23 12:36:30;;;;;;;22.37;20.60;;;23.00;76.00;;;;;;5092242;28;20971;-68
2023/04/23 12:39:19;;;;;;;23.10;21.00;;;23.00;75.80;;;;;;5093542;28;20569;-65
2023/04/23 12:41:46;;;;;;;20.10;18.30;;;23.00;75.90;;;;;;5106882;28;20909;-63